sensor_id;sensor_type;location;lat;lon;timestamp;P1;durP1;ratioP1;P2;durP2;ratioP2
8490;SDS011;4282;49.986;7.938;2023-04-25T00:00:01;3.90;;;2.60;;
8490;SDS011;4282;49.986;7.938;2023-04-25T00:02:31;5.17;;;3.20;;
8490;SDS011;4282;49.986;7.938;2023-04-25T00:05:02;3.63;;;3.30;;
8490;SDS011;4282;49.986;7.938;2023-04-25T00:07:31;3.30;;;2.93;;
8490;SDS011;4282;49.986;7.938;2023-04-25T00:10:02;3.47;;;2.90;;
8490;SDS011;4282;49.986;7.938;2023-04-25T00:12:31;4.23;;;3.13;;
8490;SDS011;4282;49.986;7.938;2023-04-25T00:15:01;3.60;;;3.20;;
8490;SDS011;4282;49.986;7.938;2023-04-25T00:17:29;5.20;;;3.23;;
8490;SDS011;4282;49.986;7.938;2023-04-25T00:19:57;3.83;;;3.03;;
8490;SDS011;4282;49.986;7.938;2023-04-25T00:22:28;3.47;;;2.90;;
8490;SDS011;4282;49.986;7.938;2023-04-25T00:24:56;3.20;;;2.73;;
8490;SDS011;4282;49.986;7.938;2023-04-25T00:27:25;3.47;;;3.17;;
8490;SDS011;4282;49.986;7.938;2023-04-25T00:29:53;3.70;;;2.83;;
8490;SDS011;4282;49.986;7.938;2023-04-25T00:32:21;3.80;;;2.87;;
8490;SDS011;4282;49.986;7.938;2023-04-25T00:34:50;4.37;;;3.23;;
8490;SDS011;4282;49.986;7.938;2023-04-25T00:37:18;4.50;;;3.20;;
8490;SDS011;4282;49.986;7.938;2023-04-25T00:39:49;3.93;;;3.23;;
8490;SDS011;4282;49.986;7.938;2023-04-25T00:42:18;4.30;;;3.20;;
8490;SDS011;4282;49.986;7.938;2023-04-25T00:44:47;4.47;;;3.03;;
8490;SDS011;4282;49.986;7.938;2023-04-25T00:47:15;3.70;;;3.30;;
8490;SDS011;4282;49.986;7.938;2023-04-25T00:49:43;3.73;;;3.10;;
8490;SDS011;4282;49.986;7.938;2023-04-25T00:52:12;3.53;;;3.00;;
8490;SDS011;4282;49.986;7.938;2023-04-25T00:54:40;4.27;;;2.80;;
8490;SDS011;4282;49.986;7.938;2023-04-25T00:57:11;3.93;;;2.97;;
8490;SDS011;4282;49.986;7.938;2023-04-25T00:59:40;4.23;;;3.30;;
8490;SDS011;4282;49.986;7.938;2023-04-25T01:02:13;5.23;;;3.47;;
8490;SDS011;4282;49.986;7.938;2023-04-25T01:04:41;4.30;;;3.43;;
8490;SDS011;4282;49.986;7.938;2023-04-25T01:07:09;5.20;;;3.83;;
8490;SDS011;4282;49.986;7.938;2023-04-25T01:09:38;4.10;;;3.53;;
8490;SDS011;4282;49.986;7.938;2023-04-25T01:12:06;3.73;;;3.20;;
8490;SDS011;4282;49.986;7.938;2023-04-25T01:14:37;3.70;;;3.27;;
8490;SDS011;4282;49.986;7.938;2023-04-25T01:17:05;4.23;;;3.60;;
8490;SDS011;4282;49.986;7.938;2023-04-25T01:19:34;4.27;;;3.60;;
8490;SDS011;4282;49.986;7.938;2023-04-25T01:22:05;3.83;;;3.43;;
8490;SDS011;4282;49.986;7.938;2023-04-25T01:24:35;4.63;;;4.23;;
8490;SDS011;4282;49.986;7.938;2023-04-25T01:27:03;4.80;;;4.30;;
8490;SDS011;4282;49.986;7.938;2023-04-25T01:29:32;4.80;;;3.47;;
8490;SDS011;4282;49.986;7.938;2023-04-25T01:32:01;4.93;;;4.10;;
8490;SDS011;4282;49.986;7.938;2023-04-25T01:34:29;4.07;;;3.40;;
8490;SDS011;4282;49.986;7.938;2023-04-25T01:36:58;4.50;;;3.90;;
8490;SDS011;4282;49.986;7.938;2023-04-25T01:39:30;5.10;;;4.20;;
8490;SDS011;4282;49.986;7.938;2023-04-25T01:41:58;4.50;;;3.67;;
8490;SDS011;4282;49.986;7.938;2023-04-25T01:44:27;4.57;;;3.77;;
8490;SDS011;4282;49.986;7.938;2023-04-25T01:46:55;4.27;;;3.77;;
8490;SDS011;4282;49.986;7.938;2023-04-25T01:49:23;5.67;;;4.33;;
8490;SDS011;4282;49.986;7.938;2023-04-25T01:51:52;4.70;;;4.07;;
8490;SDS011;4282;49.986;7.938;2023-04-25T01:54:20;4.83;;;4.17;;
8490;SDS011;4282;49.986;7.938;2023-04-25T01:56:52;5.30;;;3.87;;
8490;SDS011;4282;49.986;7.938;2023-04-25T01:59:20;4.77;;;3.87;;
8490;SDS011;4282;49.986;7.938;2023-04-25T02:01:49;4.30;;;3.90;;
8490;SDS011;4282;49.986;7.938;2023-04-25T02:04:17;5.33;;;3.63;;
8490;SDS011;4282;49.986;7.938;2023-04-25T02:06:45;5.50;;;4.00;;
8490;SDS011;4282;49.986;7.938;2023-04-25T02:09:13;5.27;;;4.27;;
8490;SDS011;4282;49.986;7.938;2023-04-25T02:11:41;4.93;;;4.30;;
8490;SDS011;4282;49.986;7.938;2023-04-25T02:14:12;4.83;;;4.17;;
8490;SDS011;4282;49.986;7.938;2023-04-25T02:16:40;4.87;;;4.07;;
8490;SDS011;4282;49.986;7.938;2023-04-25T02:19:09;5.10;;;4.17;;
8490;SDS011;4282;49.986;7.938;2023-04-25T02:21:37;5.27;;;4.20;;
8490;SDS011;4282;49.986;7.938;2023-04-25T02:24:06;7.07;;;4.30;;
8490;SDS011;4282;49.986;7.938;2023-04-25T02:26:35;4.90;;;3.73;;
8490;SDS011;4282;49.986;7.938;2023-04-25T02:29:03;4.77;;;4.03;;
8490;SDS011;4282;49.986;7.938;2023-04-25T02:31:34;5.60;;;3.97;;
8490;SDS011;4282;49.986;7.938;2023-04-25T02:34:02;4.50;;;3.80;;
8490;SDS011;4282;49.986;7.938;2023-04-25T02:36:31;4.47;;;4.07;;
8490;SDS011;4282;49.986;7.938;2023-04-25T02:39:00;3.93;;;3.53;;
8490;SDS011;4282;49.986;7.938;2023-04-25T02:41:29;5.20;;;4.50;;
8490;SDS011;4282;49.986;7.938;2023-04-25T02:43:57;4.87;;;3.93;;
8490;SDS011;4282;49.986;7.938;2023-04-25T02:46:25;5.30;;;4.40;;
8490;SDS011;4282;49.986;7.938;2023-04-25T02:48:56;4.77;;;4.27;;
8490;SDS011;4282;49.986;7.938;2023-04-25T02:51:24;5.67;;;4.73;;
8490;SDS011;4282;49.986;7.938;2023-04-25T02:53:52;5.67;;;4.40;;
8490;SDS011;4282;49.986;7.938;2023-04-25T02:56:20;5.23;;;4.20;;
8490;SDS011;4282;49.986;7.938;2023-04-25T02:58:52;9.20;;;5.03;;
8490;SDS011;4282;49.986;7.938;2023-04-25T03:01:20;6.97;;;5.27;;
8490;SDS011;4282;49.986;7.938;2023-04-25T03:03:49;4.83;;;4.30;;
8490;SDS011;4282;49.986;7.938;2023-04-25T03:06:19;4.67;;;4.03;;
8490;SDS011;4282;49.986;7.938;2023-04-25T03:08:48;6.23;;;4.80;;
8490;SDS011;4282;49.986;7.938;2023-04-25T03:11:16;7.13;;;4.77;;
8490;SDS011;4282;49.986;7.938;2023-04-25T03:13:45;5.57;;;4.60;;
8490;SDS011;4282;49.986;7.938;2023-04-25T03:16:13;4.63;;;4.03;;
8490;SDS011;4282;49.986;7.938;2023-04-25T03:18:41;5.57;;;4.63;;
8490;SDS011;4282;49.986;7.938;2023-04-25T03:21:09;5.63;;;4.57;;
8490;SDS011;4282;49.986;7.938;2023-04-25T03:23:40;6.30;;;4.50;;
8490;SDS011;4282;49.986;7.938;2023-04-25T03:26:08;6.07;;;4.77;;
8490;SDS011;4282;49.986;7.938;2023-04-25T03:28:37;5.03;;;4.47;;
8490;SDS011;4282;49.986;7.938;2023-04-25T03:31:05;5.63;;;4.50;;
8490;SDS011;4282;49.986;7.938;2023-04-25T03:33:33;5.37;;;4.17;;
8490;SDS011;4282;49.986;7.938;2023-04-25T03:36:02;7.13;;;5.47;;
8490;SDS011;4282;49.986;7.938;2023-04-25T03:38:30;6.23;;;4.20;;
8490;SDS011;4282;49.986;7.938;2023-04-25T03:41:01;6.13;;;4.27;;
8490;SDS011;4282;49.986;7.938;2023-04-25T03:43:30;8.40;;;5.43;;
8490;SDS011;4282;49.986;7.938;2023-04-25T03:45:58;9.53;;;5.43;;
8490;SDS011;4282;49.986;7.938;2023-04-25T03:48:26;6.73;;;5.27;;
8490;SDS011;4282;49.986;7.938;2023-04-25T03:50:55;6.53;;;5.00;;
8490;SDS011;4282;49.986;7.938;2023-04-25T03:53:24;7.13;;;5.33;;
8490;SDS011;4282;49.986;7.938;2023-04-25T03:55:53;8.17;;;5.47;;
8490;SDS011;4282;49.986;7.938;2023-04-25T03:58:24;9.97;;;7.33;;
8490;SDS011;4282;49.986;7.938;2023-04-25T04:00:52;16.70;;;8.87;;
8490;SDS011;4282;49.986;7.938;2023-04-25T04:03:20;16.03;;;9.63;;
8490;SDS011;4282;49.986;7.938;2023-04-25T04:05:48;14.17;;;9.73;;
8490;SDS011;4282;49.986;7.938;2023-04-25T04:08:17;11.00;;;7.83;;
8490;SDS011;4282;49.986;7.938;2023-04-25T04:10:45;12.00;;;8.63;;
8490;SDS011;4282;49.986;7.938;2023-04-25T04:13:13;15.37;;;9.00;;
8490;SDS011;4282;49.986;7.938;2023-04-25T04:15:44;11.40;;;8.50;;
8490;SDS011;4282;49.986;7.938;2023-04-25T04:18:12;13.07;;;8.00;;
8490;SDS011;4282;49.986;7.938;2023-04-25T04:20:41;10.87;;;7.53;;
8490;SDS011;4282;49.986;7.938;2023-04-25T04:23:09;11.57;;;7.53;;
8490;SDS011;4282;49.986;7.938;2023-04-25T04:25:37;12.40;;;7.53;;
8490;SDS011;4282;49.986;7.938;2023-04-25T04:28:06;12.23;;;7.63;;
8490;SDS011;4282;49.986;7.938;2023-04-25T04:30:36;12.53;;;7.30;;
8490;SDS011;4282;49.986;7.938;2023-04-25T04:33:06;12.93;;;7.13;;
8490;SDS011;4282;49.986;7.938;2023-04-25T04:35:35;9.80;;;6.70;;
8490;SDS011;4282;49.986;7.938;2023-04-25T04:38:03;11.70;;;6.50;;
8490;SDS011;4282;49.986;7.938;2023-04-25T04:40:31;11.80;;;7.00;;
8490;SDS011;4282;49.986;7.938;2023-04-25T04:43:00;10.33;;;6.63;;
8490;SDS011;4282;49.986;7.938;2023-04-25T04:45:28;11.50;;;7.07;;
8490;SDS011;4282;49.986;7.938;2023-04-25T04:47:56;12.53;;;6.30;;
8490;SDS011;4282;49.986;7.938;2023-04-25T04:50:27;8.80;;;5.37;;
8490;SDS011;4282;49.986;7.938;2023-04-25T04:52:57;8.67;;;5.50;;
8490;SDS011;4282;49.986;7.938;2023-04-25T04:55:25;9.83;;;5.10;;
8490;SDS011;4282;49.986;7.938;2023-04-25T04:57:54;9.67;;;5.33;;
8490;SDS011;4282;49.986;7.938;2023-04-25T05:00:22;13.17;;;5.13;;
8490;SDS011;4282;49.986;7.938;2023-04-25T05:02:51;10.80;;;5.27;;
8490;SDS011;4282;49.986;7.938;2023-04-25T05:05:19;10.13;;;5.30;;
8490;SDS011;4282;49.986;7.938;2023-04-25T05:07:50;12.70;;;5.40;;
8490;SDS011;4282;49.986;7.938;2023-04-25T05:10:18;11.10;;;5.00;;
8490;SDS011;4282;49.986;7.938;2023-04-25T05:12:47;9.53;;;5.07;;
8490;SDS011;4282;49.986;7.938;2023-04-25T05:15:16;8.87;;;5.33;;
8490;SDS011;4282;49.986;7.938;2023-04-25T05:17:44;8.43;;;4.90;;
8490;SDS011;4282;49.986;7.938;2023-04-25T05:20:12;8.57;;;4.87;;
8490;SDS011;4282;49.986;7.938;2023-04-25T05:22:41;9.43;;;5.10;;
8490;SDS011;4282;49.986;7.938;2023-04-25T05:25:12;13.10;;;5.43;;
8490;SDS011;4282;49.986;7.938;2023-04-25T05:27:40;9.90;;;5.03;;
8490;SDS011;4282;49.986;7.938;2023-04-25T05:30:08;9.03;;;5.07;;
8490;SDS011;4282;49.986;7.938;2023-04-25T05:32:37;11.13;;;5.40;;
8490;SDS011;4282;49.986;7.938;2023-04-25T05:35:05;11.20;;;5.03;;
8490;SDS011;4282;49.986;7.938;2023-04-25T05:37:34;11.33;;;5.33;;
8490;SDS011;4282;49.986;7.938;2023-04-25T05:40:03;13.13;;;6.03;;
8490;SDS011;4282;49.986;7.938;2023-04-25T05:42:35;9.20;;;4.90;;
8490;SDS011;4282;49.986;7.938;2023-04-25T05:45:04;11.17;;;4.93;;
8490;SDS011;4282;49.986;7.938;2023-04-25T05:47:33;12.07;;;5.10;;
8490;SDS011;4282;49.986;7.938;2023-04-25T05:50:01;7.90;;;5.27;;
8490;SDS011;4282;49.986;7.938;2023-04-25T05:52:29;11.27;;;5.60;;
8490;SDS011;4282;49.986;7.938;2023-04-25T05:54:58;8.03;;;4.63;;
8490;SDS011;4282;49.986;7.938;2023-04-25T05:57:26;11.57;;;4.70;;
8490;SDS011;4282;49.986;7.938;2023-04-25T05:59:57;12.30;;;5.00;;
8490;SDS011;4282;49.986;7.938;2023-04-25T06:02:25;9.53;;;5.50;;
8490;SDS011;4282;49.986;7.938;2023-04-25T06:04:54;9.60;;;4.90;;
8490;SDS011;4282;49.986;7.938;2023-04-25T06:07:22;9.10;;;4.77;;
8490;SDS011;4282;49.986;7.938;2023-04-25T06:09:50;10.83;;;4.33;;
8490;SDS011;4282;49.986;7.938;2023-04-25T06:12:18;11.70;;;5.57;;
8490;SDS011;4282;49.986;7.938;2023-04-25T06:14:46;8.83;;;4.83;;
8490;SDS011;4282;49.986;7.938;2023-04-25T06:17:17;12.23;;;4.57;;
8490;SDS011;4282;49.986;7.938;2023-04-25T06:19:45;8.67;;;4.70;;
8490;SDS011;4282;49.986;7.938;2023-04-25T06:22:14;8.13;;;3.70;;
8490;SDS011;4282;49.986;7.938;2023-04-25T06:24:42;8.47;;;4.50;;
8490;SDS011;4282;49.986;7.938;2023-04-25T06:27:10;8.77;;;5.17;;
8490;SDS011;4282;49.986;7.938;2023-04-25T06:29:39;8.90;;;4.70;;
8490;SDS011;4282;49.986;7.938;2023-04-25T06:32:07;11.47;;;4.80;;
8490;SDS011;4282;49.986;7.938;2023-04-25T06:34:38;7.07;;;4.10;;
8490;SDS011;4282;49.986;7.938;2023-04-25T06:37:06;9.60;;;4.57;;
8490;SDS011;4282;49.986;7.938;2023-04-25T06:39:34;7.17;;;4.53;;
8490;SDS011;4282;49.986;7.938;2023-04-25T06:42:02;10.00;;;5.00;;
8490;SDS011;4282;49.986;7.938;2023-04-25T06:44:31;7.97;;;4.10;;
8490;SDS011;4282;49.986;7.938;2023-04-25T06:46:59;8.20;;;4.30;;
8490;SDS011;4282;49.986;7.938;2023-04-25T06:49:27;10.20;;;4.77;;
8490;SDS011;4282;49.986;7.938;2023-04-25T06:51:58;12.50;;;4.37;;
8490;SDS011;4282;49.986;7.938;2023-04-25T06:54:26;6.87;;;3.97;;
8490;SDS011;4282;49.986;7.938;2023-04-25T06:56:54;9.97;;;4.73;;
8490;SDS011;4282;49.986;7.938;2023-04-25T06:59:23;6.87;;;4.73;;
8490;SDS011;4282;49.986;7.938;2023-04-25T07:01:51;8.47;;;4.47;;
8490;SDS011;4282;49.986;7.938;2023-04-25T07:04:20;6.93;;;4.67;;
8490;SDS011;4282;49.986;7.938;2023-04-25T07:06:48;8.50;;;4.40;;
8490;SDS011;4282;49.986;7.938;2023-04-25T07:09:19;7.43;;;4.70;;
8490;SDS011;4282;49.986;7.938;2023-04-25T07:11:47;7.00;;;4.50;;
8490;SDS011;4282;49.986;7.938;2023-04-25T07:14:15;13.03;;;4.23;;
8490;SDS011;4282;49.986;7.938;2023-04-25T07:16:43;7.50;;;4.73;;
8490;SDS011;4282;49.986;7.938;2023-04-25T07:19:12;8.87;;;4.37;;
8490;SDS011;4282;49.986;7.938;2023-04-25T07:21:40;9.17;;;4.67;;
8490;SDS011;4282;49.986;7.938;2023-04-25T07:24:08;7.97;;;4.80;;
8490;SDS011;4282;49.986;7.938;2023-04-25T07:26:39;9.27;;;5.07;;
8490;SDS011;4282;49.986;7.938;2023-04-25T07:29:08;8.03;;;4.53;;
8490;SDS011;4282;49.986;7.938;2023-04-25T07:31:36;5.93;;;4.50;;
8490;SDS011;4282;49.986;7.938;2023-04-25T07:34:04;5.97;;;4.03;;
8490;SDS011;4282;49.986;7.938;2023-04-25T07:36:33;6.97;;;4.50;;
8490;SDS011;4282;49.986;7.938;2023-04-25T07:39:01;11.50;;;4.47;;
8490;SDS011;4282;49.986;7.938;2023-04-25T07:41:29;12.17;;;4.63;;
8490;SDS011;4282;49.986;7.938;2023-04-25T07:44:00;8.47;;;4.67;;
8490;SDS011;4282;49.986;7.938;2023-04-25T07:46:29;7.63;;;4.83;;
8490;SDS011;4282;49.986;7.938;2023-04-25T07:48:57;8.03;;;4.80;;
8490;SDS011;4282;49.986;7.938;2023-04-25T07:51:25;5.70;;;3.80;;
8490;SDS011;4282;49.986;7.938;2023-04-25T07:53:53;8.00;;;4.27;;
8490;SDS011;4282;49.986;7.938;2023-04-25T07:56:21;6.63;;;3.53;;
8490;SDS011;4282;49.986;7.938;2023-04-25T07:58:50;7.30;;;4.17;;
8490;SDS011;4282;49.986;7.938;2023-04-25T08:01:20;8.17;;;4.07;;
8490;SDS011;4282;49.986;7.938;2023-04-25T08:03:49;8.47;;;3.70;;
8490;SDS011;4282;49.986;7.938;2023-04-25T08:06:17;7.77;;;4.23;;
8490;SDS011;4282;49.986;7.938;2023-04-25T08:08:45;5.73;;;3.83;;
8490;SDS011;4282;49.986;7.938;2023-04-25T08:11:13;5.73;;;3.87;;
8490;SDS011;4282;49.986;7.938;2023-04-25T08:13:42;8.43;;;3.73;;
8490;SDS011;4282;49.986;7.938;2023-04-25T08:16:10;5.07;;;3.37;;
8490;SDS011;4282;49.986;7.938;2023-04-25T08:18:41;5.40;;;2.90;;
8490;SDS011;4282;49.986;7.938;2023-04-25T08:21:09;5.47;;;3.47;;
8490;SDS011;4282;49.986;7.938;2023-04-25T08:23:37;5.20;;;2.80;;
8490;SDS011;4282;49.986;7.938;2023-04-25T08:26:06;6.07;;;2.70;;
8490;SDS011;4282;49.986;7.938;2023-04-25T08:28:34;5.90;;;2.93;;
8490;SDS011;4282;49.986;7.938;2023-04-25T08:31:03;6.00;;;3.23;;
8490;SDS011;4282;49.986;7.938;2023-04-25T08:33:31;4.10;;;2.70;;
8490;SDS011;4282;49.986;7.938;2023-04-25T08:36:02;5.47;;;2.83;;
8490;SDS011;4282;49.986;7.938;2023-04-25T08:38:31;5.23;;;2.77;;
8490;SDS011;4282;49.986;7.938;2023-04-25T08:40:59;5.17;;;2.67;;
8490;SDS011;4282;49.986;7.938;2023-04-25T08:43:29;5.70;;;3.10;;
8490;SDS011;4282;49.986;7.938;2023-04-25T08:45:58;6.00;;;3.27;;
8490;SDS011;4282;49.986;7.938;2023-04-25T08:48:28;4.20;;;3.33;;
8490;SDS011;4282;49.986;7.938;2023-04-25T08:51:03;5.83;;;3.10;;
8490;SDS011;4282;49.986;7.938;2023-04-25T08:53:33;4.77;;;3.30;;
8490;SDS011;4282;49.986;7.938;2023-04-25T08:56:02;4.27;;;3.07;;
8490;SDS011;4282;49.986;7.938;2023-04-25T08:58:30;6.27;;;3.10;;
8490;SDS011;4282;49.986;7.938;2023-04-25T09:00:59;5.40;;;3.20;;
8490;SDS011;4282;49.986;7.938;2023-04-25T09:03:28;4.13;;;2.63;;
8490;SDS011;4282;49.986;7.938;2023-04-25T09:05:56;5.57;;;3.17;;
8490;SDS011;4282;49.986;7.938;2023-04-25T09:08:27;6.37;;;4.13;;
8490;SDS011;4282;49.986;7.938;2023-04-25T09:10:55;9.97;;;6.73;;
8490;SDS011;4282;49.986;7.938;2023-04-25T09:13:24;6.83;;;4.27;;
8490;SDS011;4282;49.986;7.938;2023-04-25T09:15:53;9.13;;;4.00;;
8490;SDS011;4282;49.986;7.938;2023-04-25T09:18:23;5.20;;;3.70;;
8490;SDS011;4282;49.986;7.938;2023-04-25T09:20:53;7.03;;;3.67;;
8490;SDS011;4282;49.986;7.938;2023-04-25T09:23:22;6.07;;;3.60;;
8490;SDS011;4282;49.986;7.938;2023-04-25T09:25:53;8.37;;;4.00;;
8490;SDS011;4282;49.986;7.938;2023-04-25T09:28:25;6.53;;;3.70;;
8490;SDS011;4282;49.986;7.938;2023-04-25T09:30:55;8.43;;;5.00;;
8490;SDS011;4282;49.986;7.938;2023-04-25T09:33:27;5.03;;;3.80;;
8490;SDS011;4282;49.986;7.938;2023-04-25T09:36:01;7.10;;;3.77;;
8490;SDS011;4282;49.986;7.938;2023-04-25T09:38:30;6.70;;;4.17;;
8490;SDS011;4282;49.986;7.938;2023-04-25T09:41:01;6.10;;;3.57;;
8490;SDS011;4282;49.986;7.938;2023-04-25T09:43:30;6.77;;;4.00;;
8490;SDS011;4282;49.986;7.938;2023-04-25T09:45:58;6.77;;;4.30;;
8490;SDS011;4282;49.986;7.938;2023-04-25T09:48:27;5.67;;;4.07;;
8490;SDS011;4282;49.986;7.938;2023-04-25T09:51:05;5.10;;;3.83;;
8490;SDS011;4282;49.986;7.938;2023-04-25T09:53:34;6.93;;;4.07;;
8490;SDS011;4282;49.986;7.938;2023-04-25T09:56:07;5.50;;;3.93;;
8490;SDS011;4282;49.986;7.938;2023-04-25T09:58:37;6.87;;;4.10;;
8490;SDS011;4282;49.986;7.938;2023-04-25T10:01:07;6.30;;;3.67;;
8490;SDS011;4282;49.986;7.938;2023-04-25T10:03:36;6.07;;;3.90;;
8490;SDS011;4282;49.986;7.938;2023-04-25T10:06:06;8.37;;;4.10;;
8490;SDS011;4282;49.986;7.938;2023-04-25T10:08:36;8.57;;;4.30;;
8490;SDS011;4282;49.986;7.938;2023-04-25T10:11:08;6.50;;;3.93;;
8490;SDS011;4282;49.986;7.938;2023-04-25T10:13:39;7.77;;;4.47;;
8490;SDS011;4282;49.986;7.938;2023-04-25T10:16:08;5.53;;;3.60;;
8490;SDS011;4282;49.986;7.938;2023-04-25T10:18:36;7.47;;;3.87;;
8490;SDS011;4282;49.986;7.938;2023-04-25T10:21:05;5.50;;;3.67;;
8490;SDS011;4282;49.986;7.938;2023-04-25T10:23:34;5.17;;;3.87;;
8490;SDS011;4282;49.986;7.938;2023-04-25T10:26:02;6.07;;;4.30;;
8490;SDS011;4282;49.986;7.938;2023-04-25T10:28:47;10.10;;;4.50;;
8490;SDS011;4282;49.986;7.938;2023-04-25T10:31:22;5.93;;;3.90;;
8490;SDS011;4282;49.986;7.938;2023-04-25T10:33:51;5.77;;;4.13;;
8490;SDS011;4282;49.986;7.938;2023-04-25T10:36:20;5.80;;;3.53;;
8490;SDS011;4282;49.986;7.938;2023-04-25T10:38:52;5.73;;;3.57;;
8490;SDS011;4282;49.986;7.938;2023-04-25T10:41:20;6.43;;;2.90;;
8490;SDS011;4282;49.986;7.938;2023-04-25T10:43:58;5.03;;;3.20;;
8490;SDS011;4282;49.986;7.938;2023-04-25T10:46:28;7.93;;;3.00;;
8490;SDS011;4282;49.986;7.938;2023-04-25T10:48:57;9.43;;;3.70;;
8490;SDS011;4282;49.986;7.938;2023-04-25T10:51:27;6.97;;;3.50;;
8490;SDS011;4282;49.986;7.938;2023-04-25T10:53:56;4.97;;;3.33;;
8490;SDS011;4282;49.986;7.938;2023-04-25T10:56:26;7.93;;;3.50;;
8490;SDS011;4282;49.986;7.938;2023-04-25T10:59:11;5.80;;;3.17;;
8490;SDS011;4282;49.986;7.938;2023-04-25T11:01:40;7.33;;;3.37;;
8490;SDS011;4282;49.986;7.938;2023-04-25T11:04:21;5.17;;;2.90;;
8490;SDS011;4282;49.986;7.938;2023-04-25T11:06:54;6.13;;;3.40;;
8490;SDS011;4282;49.986;7.938;2023-04-25T11:09:26;10.57;;;3.90;;
8490;SDS011;4282;49.986;7.938;2023-04-25T11:11:55;9.43;;;3.73;;
8490;SDS011;4282;49.986;7.938;2023-04-25T11:14:26;7.10;;;3.40;;
8490;SDS011;4282;49.986;7.938;2023-04-25T11:16:54;8.27;;;3.60;;
8490;SDS011;4282;49.986;7.938;2023-04-25T11:19:23;6.73;;;3.77;;
8490;SDS011;4282;49.986;7.938;2023-04-25T11:21:54;11.87;;;4.33;;
8490;SDS011;4282;49.986;7.938;2023-04-25T11:24:25;6.20;;;3.20;;
8490;SDS011;4282;49.986;7.938;2023-04-25T11:26:53;7.60;;;3.47;;
8490;SDS011;4282;49.986;7.938;2023-04-25T11:29:22;4.57;;;3.20;;
8490;SDS011;4282;49.986;7.938;2023-04-25T11:31:53;8.17;;;3.60;;
8490;SDS011;4282;49.986;7.938;2023-04-25T11:34:23;6.90;;;4.60;;
8490;SDS011;4282;49.986;7.938;2023-04-25T11:36:52;6.63;;;3.43;;
8490;SDS011;4282;49.986;7.938;2023-04-25T11:39:21;9.40;;;3.70;;
8490;SDS011;4282;49.986;7.938;2023-04-25T11:41:49;6.63;;;3.63;;
8490;SDS011;4282;49.986;7.938;2023-04-25T11:44:18;7.37;;;3.70;;
8490;SDS011;4282;49.986;7.938;2023-04-25T11:46:46;5.20;;;3.60;;
8490;SDS011;4282;49.986;7.938;2023-04-25T11:49:17;6.50;;;3.93;;
8490;SDS011;4282;49.986;7.938;2023-04-25T11:51:47;6.77;;;3.27;;
8490;SDS011;4282;49.986;7.938;2023-04-25T11:54:16;8.73;;;4.03;;
8490;SDS011;4282;49.986;7.938;2023-04-25T11:56:45;8.40;;;3.67;;
8490;SDS011;4282;49.986;7.938;2023-04-25T11:59:13;6.70;;;3.33;;
8490;SDS011;4282;49.986;7.938;2023-04-25T12:01:48;10.10;;;3.60;;
8490;SDS011;4282;49.986;7.938;2023-04-25T12:04:20;6.87;;;3.70;;
8490;SDS011;4282;49.986;7.938;2023-04-25T12:06:49;4.63;;;3.30;;
8490;SDS011;4282;49.986;7.938;2023-04-25T12:09:19;7.07;;;3.13;;
8490;SDS011;4282;49.986;7.938;2023-04-25T12:11:53;6.37;;;3.47;;
8490;SDS011;4282;49.986;7.938;2023-04-25T12:14:23;5.20;;;3.50;;
8490;SDS011;4282;49.986;7.938;2023-04-25T12:16:52;7.33;;;3.50;;
8490;SDS011;4282;49.986;7.938;2023-04-25T12:19:25;6.27;;;3.30;;
8490;SDS011;4282;49.986;7.938;2023-04-25T12:21:54;5.07;;;2.80;;
8490;SDS011;4282;49.986;7.938;2023-04-25T12:24:23;5.30;;;3.00;;
8490;SDS011;4282;49.986;7.938;2023-04-25T12:26:52;6.30;;;2.70;;
8490;SDS011;4282;49.986;7.938;2023-04-25T12:29:23;4.47;;;3.20;;
8490;SDS011;4282;49.986;7.938;2023-04-25T12:31:52;6.57;;;3.20;;
8490;SDS011;4282;49.986;7.938;2023-04-25T12:34:21;6.30;;;2.80;;
8490;SDS011;4282;49.986;7.938;2023-04-25T12:36:53;4.93;;;2.20;;
8490;SDS011;4282;49.986;7.938;2023-04-25T12:39:22;5.40;;;2.60;;
8490;SDS011;4282;49.986;7.938;2023-04-25T12:41:51;6.10;;;2.10;;
8490;SDS011;4282;49.986;7.938;2023-04-25T12:44:20;5.43;;;2.67;;
8490;SDS011;4282;49.986;7.938;2023-04-25T12:46:48;5.70;;;2.47;;
8490;SDS011;4282;49.986;7.938;2023-04-25T12:49:17;4.93;;;2.27;;
8490;SDS011;4282;49.986;7.938;2023-04-25T12:51:48;3.97;;;1.97;;
8490;SDS011;4282;49.986;7.938;2023-04-25T12:54:16;4.87;;;2.40;;
8490;SDS011;4282;49.986;7.938;2023-04-25T12:56:44;5.23;;;2.83;;
8490;SDS011;4282;49.986;7.938;2023-04-25T12:59:12;2.67;;;2.00;;
8490;SDS011;4282;49.986;7.938;2023-04-25T13:01:41;4.07;;;2.20;;
8490;SDS011;4282;49.986;7.938;2023-04-25T13:04:10;3.97;;;2.03;;
8490;SDS011;4282;49.986;7.938;2023-04-25T13:06:38;6.10;;;2.37;;
8490;SDS011;4282;49.986;7.938;2023-04-25T13:09:09;5.77;;;2.50;;
8490;SDS011;4282;49.986;7.938;2023-04-25T13:11:37;3.23;;;1.97;;
8490;SDS011;4282;49.986;7.938;2023-04-25T13:14:06;4.87;;;2.37;;
8490;SDS011;4282;49.986;7.938;2023-04-25T13:16:34;3.60;;;2.07;;
8490;SDS011;4282;49.986;7.938;2023-04-25T13:19:03;6.77;;;2.67;;
8490;SDS011;4282;49.986;7.938;2023-04-25T13:21:32;5.17;;;2.33;;
8490;SDS011;4282;49.986;7.938;2023-04-25T13:24:01;4.23;;;2.57;;
8490;SDS011;4282;49.986;7.938;2023-04-25T13:26:31;6.27;;;2.50;;
8490;SDS011;4282;49.986;7.938;2023-04-25T13:29:00;4.13;;;2.03;;
8490;SDS011;4282;49.986;7.938;2023-04-25T13:31:29;4.77;;;2.23;;
8490;SDS011;4282;49.986;7.938;2023-04-25T13:33:57;4.03;;;2.10;;
8490;SDS011;4282;49.986;7.938;2023-04-25T13:36:25;4.30;;;2.03;;
8490;SDS011;4282;49.986;7.938;2023-04-25T13:38:54;4.53;;;1.97;;
8490;SDS011;4282;49.986;7.938;2023-04-25T13:41:22;5.77;;;2.07;;
8490;SDS011;4282;49.986;7.938;2023-04-25T13:43:53;4.97;;;2.10;;
8490;SDS011;4282;49.986;7.938;2023-04-25T13:46:21;5.17;;;2.20;;
8490;SDS011;4282;49.986;7.938;2023-04-25T13:48:49;3.43;;;1.80;;
8490;SDS011;4282;49.986;7.938;2023-04-25T13:51:17;3.27;;;1.53;;
8490;SDS011;4282;49.986;7.938;2023-04-25T13:53:45;4.40;;;1.83;;
8490;SDS011;4282;49.986;7.938;2023-04-25T13:56:14;2.03;;;1.50;;
8490;SDS011;4282;49.986;7.938;2023-04-25T13:58:44;3.80;;;1.80;;
8490;SDS011;4282;49.986;7.938;2023-04-25T14:01:15;6.07;;;2.17;;
8490;SDS011;4282;49.986;7.938;2023-04-25T14:03:44;3.60;;;1.97;;
8490;SDS011;4282;49.986;7.938;2023-04-25T14:06:13;5.60;;;1.90;;
8490;SDS011;4282;49.986;7.938;2023-04-25T14:08:47;7.07;;;2.80;;
8490;SDS011;4282;49.986;7.938;2023-04-25T14:11:15;4.43;;;2.33;;
8490;SDS011;4282;49.986;7.938;2023-04-25T14:13:45;7.57;;;2.20;;
8490;SDS011;4282;49.986;7.938;2023-04-25T14:16:16;4.50;;;2.13;;
8490;SDS011;4282;49.986;7.938;2023-04-25T14:18:45;5.30;;;2.20;;
8490;SDS011;4282;49.986;7.938;2023-04-25T14:21:13;7.83;;;2.10;;
8490;SDS011;4282;49.986;7.938;2023-04-25T14:23:41;6.87;;;2.10;;
8490;SDS011;4282;49.986;7.938;2023-04-25T14:26:09;4.33;;;2.33;;
8490;SDS011;4282;49.986;7.938;2023-04-25T14:28:37;8.97;;;2.03;;
8490;SDS011;4282;49.986;7.938;2023-04-25T14:31:06;4.30;;;2.00;;
8490;SDS011;4282;49.986;7.938;2023-04-25T14:33:37;18.30;;;12.67;;
8490;SDS011;4282;49.986;7.938;2023-04-25T14:36:07;4.73;;;1.83;;
8490;SDS011;4282;49.986;7.938;2023-04-25T14:38:36;4.67;;;2.10;;
8490;SDS011;4282;49.986;7.938;2023-04-25T14:41:04;7.03;;;2.00;;
8490;SDS011;4282;49.986;7.938;2023-04-25T14:43:32;6.30;;;1.93;;
8490;SDS011;4282;49.986;7.938;2023-04-25T14:46:01;5.23;;;1.70;;
8490;SDS011;4282;49.986;7.938;2023-04-25T14:48:29;4.93;;;1.80;;
8490;SDS011;4282;49.986;7.938;2023-04-25T14:51:00;9.63;;;2.47;;
8490;SDS011;4282;49.986;7.938;2023-04-25T14:53:28;5.73;;;2.20;;
8490;SDS011;4282;49.986;7.938;2023-04-25T14:55:58;4.67;;;2.20;;
8490;SDS011;4282;49.986;7.938;2023-04-25T14:58:27;8.43;;;2.20;;
8490;SDS011;4282;49.986;7.938;2023-04-25T15:00:55;9.30;;;2.43;;
8490;SDS011;4282;49.986;7.938;2023-04-25T15:03:23;4.53;;;2.20;;
8490;SDS011;4282;49.986;7.938;2023-04-25T15:05:51;7.23;;;2.20;;
8490;SDS011;4282;49.986;7.938;2023-04-25T15:08:22;4.33;;;1.90;;
8490;SDS011;4282;49.986;7.938;2023-04-25T15:10:50;4.57;;;2.03;;
8490;SDS011;4282;49.986;7.938;2023-04-25T15:13:19;4.67;;;1.90;;
8490;SDS011;4282;49.986;7.938;2023-04-25T15:15:48;4.13;;;2.17;;
8490;SDS011;4282;49.986;7.938;2023-04-25T15:18:17;6.60;;;2.60;;
8490;SDS011;4282;49.986;7.938;2023-04-25T15:20:47;4.97;;;1.97;;
8490;SDS011;4282;49.986;7.938;2023-04-25T15:23:16;4.30;;;2.20;;